createdAt,value
2023-03-30T00:00:26.862Z,100487.31
2023-03-30T00:02:53.973Z,100481.72
2023-03-30T00:05:20.829Z,100478.78
2023-03-30T00:07:47.243Z,100481.97
2023-03-30T00:10:17.737Z,100478.78
2023-03-30T00:12:47.588Z,100475.56
2023-03-30T00:15:16.560Z,100468.66
2023-03-30T00:17:43.554Z,100470.09
2023-03-30T00:20:12.113Z,100463.81
2023-03-30T00:22:39.870Z,100463.06
2023-03-30T00:25:08.736Z,100461.00
2023-03-30T00:27:36.670Z,100453.94
2023-03-30T00:30:09.127Z,100447.56
2023-03-30T00:32:35.742Z,100444.59
2023-03-30T00:35:02.623Z,100444.81
2023-03-30T00:37:29.703Z,100440.72
2023-03-30T00:39:56.641Z,100424.94
2023-03-30T00:42:24.155Z,100415.56
2023-03-30T00:45:22.582Z,100418.53
2023-03-30T00:48:09.253Z,100406.16
2023-03-30T00:50:43.284Z,100394.31
2023-03-30T00:53:17.287Z,100397.94
2023-03-30T00:55:46.005Z,100392.72
2023-03-30T00:58:15.574Z,100394.31
2023-03-30T01:00:43.941Z,100376.34
2023-03-30T01:03:24.937Z,100381.09
2023-03-30T01:05:52.981Z,100368.25
2023-03-30T01:08:20.379Z,100354.59
2023-03-30T01:10:47.030Z,100352.72
2023-03-30T01:13:15.139Z,100355.00
2023-03-30T01:16:01.205Z,100344.00
2023-03-30T01:18:38.047Z,100343.31
2023-03-30T01:21:33.369Z,100347.03
2023-03-30T01:24:23.090Z,100350.00
2023-03-30T01:26:53.401Z,100368.00
2023-03-30T01:29:51.844Z,100360.13
2023-03-30T01:32:43.113Z,100355.81
2023-03-30T01:35:23.608Z,100351.41
2023-03-30T01:38:09.447Z,100363.03
2023-03-30T01:41:02.625Z,100355.81
2023-03-30T01:43:38.384Z,100348.66
2023-03-30T01:46:17.023Z,100349.16
2023-03-30T01:48:49.564Z,100347.88
2023-03-30T01:51:22.599Z,100336.69
2023-03-30T01:54:06.577Z,100332.28
2023-03-30T01:56:56.838Z,100324.53
2023-03-30T01:59:53.245Z,100314.84
2023-03-30T02:02:22.457Z,100297.47
2023-03-30T02:04:53.803Z,100295.97
2023-03-30T02:07:24.468Z,100298.00
2023-03-30T02:09:55.675Z,100303.44
2023-03-30T02:12:23.810Z,100287.97
2023-03-30T02:14:52.285Z,100290.00
2023-03-30T02:17:22.885Z,100282.84
2023-03-30T02:19:49.746Z,100278.44
2023-03-30T02:22:18.011Z,100278.16
2023-03-30T02:24:47.967Z,100278.16
2023-03-30T02:27:15.441Z,100269.25
2023-03-30T02:29:44.208Z,100257.19
2023-03-30T02:32:29.883Z,100254.88
2023-03-30T02:35:22.349Z,100247.94
2023-03-30T02:38:26.274Z,100241.31
2023-03-30T02:41:30.258Z,100234.63
2023-03-30T02:44:06.104Z,100222.09
2023-03-30T02:47:03.990Z,100201.16
2023-03-30T02:49:38.264Z,100201.06
2023-03-30T02:52:22.378Z,100199.47
2023-03-30T02:55:13.657Z,100189.75
2023-03-30T02:57:58.913Z,100197.44
2023-03-30T03:00:30.460Z,100191.19
2023-03-30T03:03:00.285Z,100199.28
2023-03-30T03:05:28.551Z,100179.72
2023-03-30T03:07:55.016Z,100184.03
2023-03-30T03:10:21.826Z,100171.44
2023-03-30T03:12:48.276Z,100172.41
2023-03-30T03:15:16.192Z,100177.78
2023-03-30T03:17:45.162Z,100170.09
2023-03-30T03:20:11.832Z,100167.00
2023-03-30T03:22:38.301Z,100162.81
2023-03-30T03:25:05.454Z,100159.97
2023-03-30T03:27:31.866Z,100167.56
2023-03-30T03:29:58.829Z,100155.22
2023-03-30T03:32:25.314Z,100161.47
2023-03-30T03:34:52.010Z,100153.63
2023-03-30T03:37:18.471Z,100139.53
2023-03-30T03:39:44.834Z,100133.28
2023-03-30T03:42:11.416Z,100146.38
2023-03-30T03:44:38.606Z,100143.94
2023-03-30T03:47:05.096Z,100133.38
2023-03-30T03:49:31.634Z,100128.53
2023-03-30T03:51:58.097Z,100129.31
2023-03-30T03:54:24.560Z,100123.41
2023-03-30T03:56:51.903Z,100126.69
2023-03-30T03:59:18.399Z,100123.06
2023-03-30T04:01:44.796Z,100123.78
2023-03-30T04:04:11.600Z,100113.91
2023-03-30T04:06:38.080Z,100115.91
2023-03-30T04:09:04.456Z,100115.16
2023-03-30T04:11:30.959Z,100108.97
2023-03-30T04:13:57.406Z,100105.19
2023-03-30T04:16:23.849Z,100107.81
2023-03-30T04:18:50.276Z,100098.13
2023-03-30T04:21:17.693Z,100077.06
2023-03-30T04:23:49.106Z,100072.84
2023-03-30T04:26:15.738Z,100078.22
2023-03-30T04:28:42.284Z,100077.78
2023-03-30T04:31:11.018Z,100062.19
2023-03-30T04:33:38.866Z,100057.44
2023-03-30T04:36:05.714Z,100057.16
2023-03-30T04:38:32.367Z,100053.53
2023-03-30T04:41:00.345Z,100040.25
2023-03-30T04:43:26.831Z,100036.28
2023-03-30T04:45:55.484Z,100030.47
2023-03-30T04:48:23.827Z,100009.41
2023-03-30T04:50:51.325Z,100022.47
2023-03-30T04:53:18.698Z,100031.19
2023-03-30T04:55:49.764Z,100032.22
2023-03-30T04:58:16.941Z,100026.75
2023-03-30T05:00:43.552Z,100030.66
2023-03-30T05:03:10.119Z,100030.75
2023-03-30T05:05:36.763Z,100024.59
2023-03-30T05:08:04.873Z,100022.28
2023-03-30T05:10:31.442Z,100026.06
2023-03-30T05:12:57.871Z,100006.25
2023-03-30T05:15:24.412Z,100005.09
2023-03-30T05:17:50.960Z,100009.03
2023-03-30T05:20:18.164Z,100006.38
2023-03-30T05:22:46.813Z,99994.69
2023-03-30T05:25:13.387Z,99995.09
2023-03-30T05:27:39.798Z,99983.06
2023-03-30T05:30:08.120Z,99989.72
2023-03-30T05:32:34.683Z,99974.06
2023-03-30T05:35:01.375Z,99974.13
2023-03-30T05:37:27.784Z,99971.84
2023-03-30T05:39:54.177Z,99974.91
2023-03-30T05:42:21.517Z,99971.25
2023-03-30T05:44:47.959Z,99984.94
2023-03-30T05:47:14.396Z,99964.94
2023-03-30T05:49:40.886Z,99962.56
2023-03-30T05:52:07.288Z,99959.31
2023-03-30T05:54:33.760Z,99959.63
2023-03-30T05:57:00.240Z,99961.56
2023-03-30T05:59:26.883Z,99954.22
2023-03-30T06:01:54.118Z,99949.56
2023-03-30T06:04:20.663Z,99951.56
2023-03-30T06:06:47.223Z,99948.41
2023-03-30T06:09:13.640Z,99950.00
2023-03-30T06:11:40.078Z,99948.91
2023-03-30T06:14:06.484Z,99941.00
2023-03-30T06:16:33.010Z,99946.47
2023-03-30T06:18:59.527Z,99940.34
2023-03-30T06:21:25.932Z,99936.53
2023-03-30T06:23:52.420Z,99948.34
2023-03-30T06:26:18.912Z,99946.47
2023-03-30T06:28:45.318Z,99948.84
2023-03-30T06:31:12.233Z,99941.91
2023-03-30T06:33:41.794Z,99947.53
2023-03-30T06:36:13.487Z,99943.59
2023-03-30T06:38:41.132Z,99945.25
2023-03-30T06:41:10.012Z,99949.63
2023-03-30T06:43:37.440Z,99940.78
2023-03-30T06:46:04.361Z,99943.53
2023-03-30T06:48:30.793Z,99935.69
2023-03-30T06:50:57.895Z,99930.63
2023-03-30T06:53:24.780Z,99936.16
2023-03-30T06:55:53.358Z,99935.03
2023-03-30T06:58:20.037Z,99931.50
2023-03-30T07:00:47.076Z,99923.22
2023-03-30T07:03:13.753Z,99910.34
2023-03-30T07:05:40.376Z,99904.94
2023-03-30T07:08:07.836Z,99901.94
2023-03-30T07:10:34.246Z,99898.88
2023-03-30T07:13:00.730Z,99908.31
2023-03-30T07:15:27.331Z,99895.91
2023-03-30T07:17:53.831Z,99898.34
2023-03-30T07:20:20.430Z,99894.56
2023-03-30T07:22:46.874Z,99900.22
2023-03-30T07:25:13.698Z,99903.34
2023-03-30T07:27:40.921Z,99897.84
2023-03-30T07:30:20.697Z,99896.44
2023-03-30T07:32:50.805Z,99884.75
2023-03-30T07:35:18.417Z,99894.75
2023-03-30T07:37:45.639Z,99887.72
2023-03-30T07:40:12.827Z,99882.50
2023-03-30T07:42:40.411Z,99879.91
2023-03-30T07:45:08.103Z,99880.88
2023-03-30T07:47:34.633Z,99873.56
2023-03-30T07:50:01.311Z,99875.50
2023-03-30T07:52:27.784Z,99876.34
2023-03-30T07:54:57.373Z,99867.34
2023-03-30T07:57:24.290Z,99869.94
2023-03-30T07:59:50.810Z,99874.38
2023-03-30T08:02:18.458Z,99877.09
2023-03-30T08:04:45.094Z,99879.09
2023-03-30T08:07:12.848Z,99881.09
2023-03-30T08:09:39.346Z,99877.16
2023-03-30T08:12:06.768Z,99867.81
2023-03-30T08:14:33.282Z,99879.53
2023-03-30T08:16:59.672Z,99883.88
2023-03-30T08:19:28.402Z,99879.66
2023-03-30T08:21:56.885Z,99868.31
2023-03-30T08:24:23.490Z,99871.53
2023-03-30T08:26:49.944Z,99872.06
2023-03-30T08:29:17.015Z,99861.97
2023-03-30T08:31:43.618Z,99864.53
2023-03-30T08:34:10.203Z,99869.31
2023-03-30T08:36:36.637Z,99871.00
2023-03-30T08:39:04.766Z,99877.34
2023-03-30T08:41:49.712Z,99882.09
2023-03-30T08:44:25.805Z,99883.78
2023-03-30T08:46:52.469Z,99878.03
2023-03-30T08:49:20.762Z,99872.38
2023-03-30T08:51:51.341Z,99874.81
2023-03-30T08:54:21.026Z,99870.59
2023-03-30T08:57:09.322Z,99871.44
2023-03-30T08:59:44.175Z,99873.44
2023-03-30T09:02:19.035Z,99876.56
2023-03-30T09:05:01.839Z,99877.41
2023-03-30T09:07:30.475Z,99872.72
2023-03-30T09:09:57.359Z,99878.25
2023-03-30T09:12:43.478Z,99873.56
2023-03-30T09:15:27.258Z,99876.41
2023-03-30T09:18:17.621Z,99878.50
2023-03-30T09:20:46.503Z,99880.50
2023-03-30T09:23:15.688Z,99878.22
2023-03-30T09:25:59.915Z,99870.75
2023-03-30T09:28:36.968Z,99873.97
2023-03-30T09:31:10.887Z,99877.13
2023-03-30T09:33:52.013Z,99879.13
2023-03-30T09:36:33.549Z,99872.09
2023-03-30T09:39:00.072Z,99875.22
2023-03-30T09:41:42.187Z,99879.19
2023-03-30T09:44:20.946Z,99886.69
2023-03-30T09:46:49.870Z,99883.91
2023-03-30T09:49:17.060Z,99894.53
2023-03-30T09:52:07.951Z,99891.38
2023-03-30T09:54:37.029Z,99891.38
2023-03-30T09:57:03.689Z,99893.72
2023-03-30T09:59:36.175Z,99889.81
2023-03-30T10:02:31.049Z,99900.06
2023-03-30T10:05:00.488Z,99893.34
2023-03-30T10:07:28.690Z,99892.97
2023-03-30T10:09:56.909Z,99896.94
2023-03-30T10:12:26.049Z,99900.03
2023-03-30T10:15:00.580Z,99893.75
2023-03-30T10:17:27.538Z,99890.22
2023-03-30T10:20:14.704Z,99900.06
2023-03-30T10:22:52.498Z,99903.97
2023-03-30T10:25:23.689Z,99903.22
2023-03-30T10:27:53.486Z,99892.97
2023-03-30T10:30:25.795Z,99893.38
2023-03-30T10:32:54.520Z,99902.03
2023-03-30T10:35:24.789Z,99896.91
2023-03-30T10:37:55.106Z,99889.44
2023-03-30T10:40:27.493Z,99885.47
2023-03-30T10:42:56.781Z,99883.50
2023-03-30T10:45:40.772Z,99882.72
2023-03-30T10:48:35.395Z,99877.94
2023-03-30T10:51:23.760Z,99881.47
2023-03-30T10:53:50.233Z,99882.25
2023-03-30T10:56:23.281Z,99881.41
2023-03-30T10:59:11.674Z,99887.31
2023-03-30T11:02:10.148Z,99887.25
2023-03-30T11:04:47.301Z,99888.81
2023-03-30T11:07:19.005Z,99882.84
2023-03-30T11:09:54.042Z,99888.00
2023-03-30T11:12:26.139Z,99891.44
2023-03-30T11:15:26.921Z,99885.44
2023-03-30T11:18:17.629Z,99877.97
2023-03-30T11:20:52.426Z,99878.38
2023-03-30T11:23:27.857Z,99880.75
2023-03-30T11:26:04.819Z,99879.84
2023-03-30T11:29:02.473Z,99876.69
2023-03-30T11:31:40.491Z,99873.38
2023-03-30T11:34:26.887Z,99879.19
2023-03-30T11:37:12.105Z,99879.63
2023-03-30T11:39:45.584Z,99866.94
2023-03-30T11:42:31.301Z,99873.22
2023-03-30T11:44:58.258Z,99858.34
2023-03-30T11:47:41.637Z,99848.09
2023-03-30T11:50:08.173Z,99866.59
2023-03-30T11:52:40.313Z,99847.34
2023-03-30T11:55:34.197Z,99852.81
2023-03-30T11:58:09.578Z,99848.09
2023-03-30T12:00:59.988Z,99838.03
2023-03-30T12:03:32.317Z,99840.00
2023-03-30T12:06:19.941Z,99845.41
2023-03-30T12:08:55.579Z,99832.78
2023-03-30T12:11:22.634Z,99839.41
2023-03-30T12:13:51.720Z,99829.97
2023-03-30T12:16:37.787Z,99823.72
2023-03-30T12:19:52.966Z,99827.28
2023-03-30T12:22:43.057Z,99830.00
2023-03-30T12:25:32.371Z,99827.81
2023-03-30T12:28:11.607Z,99827.13
2023-03-30T12:30:54.778Z,99822.09
2023-03-30T12:33:46.141Z,99822.84
2023-03-30T12:36:26.118Z,99834.97
2023-03-30T12:38:58.017Z,99827.69
2023-03-30T12:41:27.051Z,99821.81
2023-03-30T12:44:02.617Z,99824.50
2023-03-30T12:46:50.184Z,99823.84
2023-03-30T12:49:26.083Z,99836.91
2023-03-30T12:52:13.941Z,99820.41
2023-03-30T12:54:54.889Z,99835.13
2023-03-30T12:57:44.282Z,99853.63
2023-03-30T13:00:10.856Z,99859.47
2023-03-30T13:02:47.037Z,99843.25
2023-03-30T13:05:20.693Z,99860.28
2023-03-30T13:07:47.257Z,99850.56
2023-03-30T13:10:29.070Z,99832.88
2023-03-30T13:13:01.469Z,99821.56
2023-03-30T13:15:40.223Z,99821.09
2023-03-30T13:18:09.508Z,99812.13
2023-03-30T13:20:57.166Z,99803.66
2023-03-30T13:23:25.260Z,99796.94
2023-03-30T13:25:57.860Z,99792.50
2023-03-30T13:28:55.019Z,99792.53
2023-03-30T13:31:24.795Z,99800.88
2023-03-30T13:34:00.296Z,99801.91
2023-03-30T13:36:33.888Z,99805.09
2023-03-30T13:39:09.246Z,99816.88
2023-03-30T13:41:58.062Z,99812.94
2023-03-30T13:44:41.842Z,99806.63
2023-03-30T13:47:29.638Z,99794.78
2023-03-30T13:50:03.415Z,99788.53
2023-03-30T13:52:38.277Z,99781.78
2023-03-30T13:55:14.811Z,99776.69
2023-03-30T13:57:42.269Z,99765.38
2023-03-30T14:00:28.205Z,99763.72
2023-03-30T14:02:54.931Z,99758.84
2023-03-30T14:05:25.163Z,99755.31
2023-03-30T14:07:57.025Z,99749.84
2023-03-30T14:10:24.845Z,99755.81
2023-03-30T14:12:54.975Z,99746.44
2023-03-30T14:15:40.173Z,99738.63
2023-03-30T14:18:13.018Z,99737.44
2023-03-30T14:20:39.669Z,99732.00
2023-03-30T14:23:06.868Z,99733.56
2023-03-30T14:25:39.647Z,99732.00
2023-03-30T14:28:17.784Z,99725.34
2023-03-30T14:30:51.174Z,99721.84
2023-03-30T14:33:18.442Z,99717.19
2023-03-30T14:35:49.271Z,99705.78
2023-03-30T14:38:23.918Z,99710.50
2023-03-30T14:40:52.860Z,99708.91
2023-03-30T14:43:24.412Z,99711.69
2023-03-30T14:45:57.143Z,99719.13
2023-03-30T14:48:23.572Z,99722.25
2023-03-30T14:50:50.654Z,99725.41
2023-03-30T14:53:24.418Z,99730.94
2023-03-30T14:55:51.908Z,99729.00
2023-03-30T14:58:18.886Z,99738.47
2023-03-30T15:00:45.979Z,99745.53
2023-03-30T15:03:26.466Z,99730.63
2023-03-30T15:06:05.023Z,99731.03
2023-03-30T15:08:36.449Z,99737.31
2023-03-30T15:11:10.656Z,99746.72
2023-03-30T15:13:41.751Z,99744.78
2023-03-30T15:16:11.925Z,99736.03
2023-03-30T15:18:38.698Z,99748.34
2023-03-30T15:21:07.785Z,99745.19
2023-03-30T15:23:40.788Z,99758.94
2023-03-30T15:26:08.171Z,99751.63
2023-03-30T15:28:44.426Z,99762.84
2023-03-30T15:31:14.077Z,99775.34
2023-03-30T15:34:13.895Z,99774.06
2023-03-30T15:36:41.080Z,99776.06
2023-03-30T15:39:27.750Z,99787.41
2023-03-30T15:41:57.888Z,99779.72
2023-03-30T15:44:24.635Z,99792.59
2023-03-30T15:46:55.585Z,99802.75
2023-03-30T15:49:29.424Z,99809.53
2023-03-30T15:52:01.679Z,99802.75
2023-03-30T15:54:34.523Z,99811.78
2023-03-30T15:57:18.053Z,99811.09
2023-03-30T16:00:12.604Z,99808.25
2023-03-30T16:02:46.249Z,99813.09
2023-03-30T16:05:21.559Z,99812.75
2023-03-30T16:07:48.775Z,99808.50
2023-03-30T16:10:27.178Z,99801.22
2023-03-30T16:12:55.641Z,99805.69
2023-03-30T16:15:25.637Z,99797.13
2023-03-30T16:17:52.510Z,99806.78
2023-03-30T16:20:21.724Z,99798.75
2023-03-30T16:22:49.037Z,99805.16
2023-03-30T16:25:17.209Z,99804.69
2023-03-30T16:27:44.154Z,99803.19
2023-03-30T16:30:16.505Z,99807.03
2023-03-30T16:32:43.231Z,99814.22
2023-03-30T16:35:09.692Z,99813.72
2023-03-30T16:37:36.428Z,99815.28
2023-03-30T16:40:10.286Z,99820.88
2023-03-30T16:42:36.692Z,99827.97
2023-03-30T16:45:03.935Z,99836.22
2023-03-30T16:47:30.366Z,99838.13
2023-03-30T16:49:56.763Z,99853.69
2023-03-30T16:52:23.223Z,99877.88
2023-03-30T16:54:49.617Z,99883.78
2023-03-30T16:57:16.108Z,99887.03
2023-03-30T16:59:43.017Z,99868.41
2023-03-30T17:02:14.836Z,99875.03
2023-03-30T17:04:45.303Z,99853.50
2023-03-30T17:07:11.740Z,99848.81
2023-03-30T17:09:38.302Z,99848.19
2023-03-30T17:12:04.861Z,99836.56
2023-03-30T17:14:31.258Z,99844.50
2023-03-30T17:16:57.877Z,99846.53
2023-03-30T17:19:25.902Z,99848.31
2023-03-30T17:21:53.149Z,99847.41
2023-03-30T17:24:20.072Z,99839.88
2023-03-30T17:26:46.610Z,99849.47
2023-03-30T17:29:13.210Z,99851.38
2023-03-30T17:31:39.663Z,99847.31
2023-03-30T17:34:07.020Z,99842.78
2023-03-30T17:36:33.606Z,99841.50
2023-03-30T17:39:00.296Z,99846.34
2023-03-30T17:41:26.839Z,99840.38
2023-03-30T17:43:53.286Z,99843.47
2023-03-30T17:46:20.652Z,99839.47
2023-03-30T17:48:47.919Z,99839.31
2023-03-30T17:51:14.448Z,99836.09
2023-03-30T17:53:40.860Z,99829.38
2023-03-30T17:56:07.497Z,99835.47
2023-03-30T17:58:36.067Z,99829.34
2023-03-30T18:01:08.440Z,99829.09
2023-03-30T18:03:38.776Z,99832.75
2023-03-30T18:06:06.014Z,99826.34
2023-03-30T18:08:33.510Z,99829.06
2023-03-30T18:11:01.660Z,99823.63
2023-03-30T18:13:30.236Z,99825.09
2023-03-30T18:15:59.470Z,99820.22
2023-03-30T18:18:31.490Z,99819.56
2023-03-30T18:21:09.387Z,99819.19
2023-03-30T18:23:37.392Z,99830.69
2023-03-30T18:26:10.195Z,99827.00
2023-03-30T18:28:40.543Z,99829.72
2023-03-30T18:31:08.462Z,99834.59
2023-03-30T18:33:34.919Z,99826.50
2023-03-30T18:36:06.002Z,99836.97
2023-03-30T18:38:38.685Z,99838.66
2023-03-30T18:41:05.113Z,99836.78
2023-03-30T18:43:31.560Z,99842.91
2023-03-30T18:46:01.811Z,99847.69
2023-03-30T18:48:28.991Z,99855.97
2023-03-30T18:50:56.234Z,99861.94
2023-03-30T18:53:25.402Z,99860.44
2023-03-30T18:55:54.207Z,99863.69
2023-03-30T18:58:23.065Z,99859.19
2023-03-30T19:00:51.530Z,99860.34
2023-03-30T19:03:19.596Z,99870.72
2023-03-30T19:05:46.461Z,99883.56
2023-03-30T19:08:14.843Z,99876.00
2023-03-30T19:10:43.454Z,99881.53
2023-03-30T19:13:14.829Z,99897.09
2023-03-30T19:15:41.898Z,99898.94
2023-03-30T19:18:08.800Z,99900.16
2023-03-30T19:20:39.621Z,99898.84
2023-03-30T19:23:06.876Z,99891.63
2023-03-30T19:25:33.619Z,99903.88
2023-03-30T19:28:03.966Z,99903.91
2023-03-30T19:30:33.635Z,99898.41
2023-03-30T19:33:03.600Z,99907.09
2023-03-30T19:35:31.261Z,99911.38
2023-03-30T19:37:57.828Z,99909.78
2023-03-30T19:40:25.110Z,99921.94
2023-03-30T19:42:51.828Z,99912.34
2023-03-30T19:45:20.656Z,99918.88
2023-03-30T19:47:47.953Z,99915.31
2023-03-30T19:50:19.686Z,99929.06
2023-03-30T19:52:48.661Z,99927.38
2023-03-30T19:55:16.572Z,99927.44
2023-03-30T19:57:43.596Z,99935.56
2023-03-30T20:00:15.853Z,99942.38
2023-03-30T20:02:48.324Z,99940.88
2023-03-30T20:05:15.811Z,99948.72
2023-03-30T20:07:44.143Z,99944.66
2023-03-30T20:10:13.765Z,99950.53
2023-03-30T20:12:40.406Z,99945.13
2023-03-30T20:15:08.710Z,99954.88
2023-03-30T20:17:36.603Z,99948.53
2023-03-30T20:20:09.176Z,99952.59
2023-03-30T20:22:37.913Z,99945.34
2023-03-30T20:25:07.319Z,99945.72
2023-03-30T20:27:35.032Z,99946.75
2023-03-30T20:30:03.312Z,99947.69
2023-03-30T20:32:33.827Z,99944.41
2023-03-30T20:35:00.717Z,99952.66
2023-03-30T20:37:27.202Z,99955.28
2023-03-30T20:39:53.614Z,99955.28
2023-03-30T20:42:26.169Z,99946.75
2023-03-30T20:44:53.382Z,99946.38
2023-03-30T20:47:23.105Z,99944.28
2023-03-30T20:49:49.672Z,99944.22
2023-03-30T20:52:16.663Z,99942.28
2023-03-30T20:54:44.336Z,99942.53
2023-03-30T20:57:11.308Z,99939.19
2023-03-30T20:59:39.223Z,99941.91
2023-03-30T21:02:06.011Z,99937.47
2023-03-30T21:04:36.617Z,99938.88
2023-03-30T21:07:03.473Z,99933.44
2023-03-30T21:09:29.965Z,99938.41
2023-03-30T21:11:56.394Z,99932.50
2023-03-30T21:14:24.045Z,99929.28
2023-03-30T21:16:50.806Z,99916.72
2023-03-30T21:19:17.376Z,99917.66
2023-03-30T21:21:43.980Z,99915.81
2023-03-30T21:24:13.577Z,99912.63
2023-03-30T21:26:49.352Z,99921.63
2023-03-30T21:29:16.004Z,99919.56
2023-03-30T21:31:42.713Z,99913.72
2023-03-30T21:34:15.056Z,99910.34
2023-03-30T21:36:42.552Z,99912.00
2023-03-30T21:39:09.006Z,99914.66
2023-03-30T21:41:35.754Z,99908.94
2023-03-30T21:44:02.261Z,99909.19
2023-03-30T21:46:37.866Z,99905.91
2023-03-30T21:49:09.246Z,99903.41
2023-03-30T21:51:35.701Z,99911.56
2023-03-30T21:54:02.505Z,99909.25
2023-03-30T21:56:37.627Z,99900.63
2023-03-30T21:59:04.114Z,99898.97
2023-03-30T22:01:38.454Z,99904.56
2023-03-30T22:04:06.303Z,99896.44
2023-03-30T22:06:32.923Z,99891.56
2023-03-30T22:08:59.373Z,99896.53
2023-03-30T22:11:26.673Z,99890.22
2023-03-30T22:13:54.936Z,99892.22
2023-03-30T22:16:28.419Z,99888.59
2023-03-30T22:18:58.608Z,99888.38
2023-03-30T22:21:33.922Z,99891.53
2023-03-30T22:24:02.029Z,99882.91
2023-03-30T22:26:28.509Z,99877.00
2023-03-30T22:28:56.205Z,99879.75
2023-03-30T22:31:22.699Z,99875.25
2023-03-30T22:33:49.219Z,99875.25
2023-03-30T22:36:21.510Z,99871.91
2023-03-30T22:38:49.512Z,99870.13
2023-03-30T22:41:15.997Z,99869.22
2023-03-30T22:43:42.536Z,99869.09
2023-03-30T22:46:09.234Z,99857.84
2023-03-30T22:48:36.165Z,99852.00
2023-03-30T22:51:04.488Z,99858.72
2023-03-30T22:53:31.785Z,99856.81
2023-03-30T22:55:58.177Z,99852.38
2023-03-30T22:58:24.694Z,99854.34
2023-03-30T23:00:51.810Z,99852.38
2023-03-30T23:03:18.626Z,99855.47
2023-03-30T23:05:51.877Z,99855.97
2023-03-30T23:08:18.659Z,99851.50
2023-03-30T23:10:45.826Z,99841.38
2023-03-30T23:13:12.406Z,99841.03
2023-03-30T23:15:38.821Z,99840.47
2023-03-30T23:18:05.962Z,99831.34
2023-03-30T23:20:32.548Z,99832.22
2023-03-30T23:22:59.020Z,99834.38
2023-03-30T23:25:26.494Z,99829.22
2023-03-30T23:27:52.958Z,99822.59
2023-03-30T23:30:19.554Z,99816.59
2023-03-30T23:32:46.149Z,99820.53
2023-03-30T23:35:12.753Z,99828.44
2023-03-30T23:37:40.094Z,99826.19
2023-03-30T23:40:07.721Z,99816.16
2023-03-30T23:42:34.190Z,99826.50
2023-03-30T23:45:00.865Z,99822.13
2023-03-30T23:47:27.727Z,99823.06
2023-03-30T23:49:54.343Z,99819.47
2023-03-30T23:52:21.038Z,99825.06
2023-03-30T23:54:52.285Z,99829.81
2023-03-30T23:57:19.962Z,99812.44
2023-03-30T23:59:46.925Z,99813.69
